CYHS weather

Hanover / Saugeen Municipal Airport
Hanover, Ontario, Canada

Public forecast

Using degrees Celsius for public forecast. Weather courtesy of forecast.io.

Closest aviation weather report (METAR) to Hanover / Saugeen Municipal Airport

Closest report is Wiarton Airport, 35.3 nm (65.4 km) N. Retrieved 2019/10/13 19:00 UTC (39 minutes ago):

CYVV 131900Z 23010G20KT 15SM FEW030 BKN120 12/04 A2972 RMK SC1AS6 SLP070 DENSITY ALT 900FT

Closest aviation forecast (TAF) to Hanover / Saugeen Municipal Airport

Closest forecast is Wiarton Airport, 35.3 nm (65.4 km) N. Retrieved 2019/10/13 20:00 UTC (0 seconds ago):

TAF CYVV 131938Z 1320/1323 23010G20KT P6SM SCT020 BKN120 TEMPO 1320/1321 P6SM -SHRA OVC020 FM132100 22012G22KT P6SM OVC030 TEMPO 1321/1323 4SM -SHRA BR OVC008 RMK NXT FCST WILL BE ISSUED AT 141045Z